sensor_id;sensor_type;location;lat;lon;timestamp;pressure;altitude;pressure_sealevel;temperature;humidity
64679;BME280;51094;53.864;27.676;2023-03-23T00:02:28;98797.81;;;7.43;71.23
64679;BME280;51094;53.864;27.676;2023-03-23T00:04:55;98788.94;;;7.47;71.40
64679;BME280;51094;53.864;27.676;2023-03-23T00:07:22;98794.09;;;7.47;72.05
64679;BME280;51094;53.864;27.676;2023-03-23T00:09:53;98785.63;;;7.45;72.56
64679;BME280;51094;53.864;27.676;2023-03-23T00:12:27;98785.63;;;7.45;72.38
64679;BME280;51094;53.864;27.676;2023-03-23T00:15:00;98789.84;;;7.46;72.96
64679;BME280;51094;53.864;27.676;2023-03-23T00:17:27;98778.78;;;7.44;72.41
64679;BME280;51094;53.864;27.676;2023-03-23T00:19:53;98758.38;;;7.26;73.84
64679;BME280;51094;53.864;27.676;2023-03-23T00:22:19;98718.25;;;6.94;74.17
64679;BME280;51094;53.864;27.676;2023-03-23T00:24:47;98716.81;;;7.03;74.23
64679;BME280;51094;53.864;27.676;2023-03-23T00:27:16;98769.06;;;7.34;73.72
64679;BME280;51094;53.864;27.676;2023-03-23T00:29:42;98740.13;;;7.15;73.60
64679;BME280;51094;53.864;27.676;2023-03-23T00:32:12;98770.91;;;7.32;74.46
64679;BME280;51094;53.864;27.676;2023-03-23T00:34:40;98704.41;;;6.95;74.41
64679;BME280;51094;53.864;27.676;2023-03-23T00:37:09;98771.41;;;7.38;74.25
64679;BME280;51094;53.864;27.676;2023-03-23T00:39:35;98795.88;;;7.46;74.59
64679;BME280;51094;53.864;27.676;2023-03-23T00:42:05;98755.19;;;7.48;73.99
64679;BME280;51094;53.864;27.676;2023-03-23T00:44:32;98751.59;;;7.51;74.85
64679;BME280;51094;53.864;27.676;2023-03-23T00:47:01;98752.59;;;7.48;74.79
64679;BME280;51094;53.864;27.676;2023-03-23T00:49:27;98716.88;;;7.15;74.68
64679;BME280;51094;53.864;27.676;2023-03-23T00:51:55;98675.25;;;6.93;74.91
64679;BME280;51094;53.864;27.676;2023-03-23T00:54:23;98720.00;;;7.20;75.12
64679;BME280;51094;53.864;27.676;2023-03-23T00:56:49;98741.09;;;7.40;75.06
64679;BME280;51094;53.864;27.676;2023-03-23T00:59:15;98747.22;;;7.39;75.45
64679;BME280;51094;53.864;27.676;2023-03-23T01:01:41;98647.47;;;6.70;75.14
64679;BME280;51094;53.864;27.676;2023-03-23T01:04:07;98653.53;;;6.83;75.70
64679;BME280;51094;53.864;27.676;2023-03-23T01:06:35;98721.78;;;7.32;75.11
64679;BME280;51094;53.864;27.676;2023-03-23T01:09:08;98755.19;;;7.48;75.89
64679;BME280;51094;53.864;27.676;2023-03-23T01:11:35;98753.63;;;7.46;75.13
64679;BME280;51094;53.864;27.676;2023-03-23T01:14:01;98745.78;;;7.47;75.54
64679;BME280;51094;53.864;27.676;2023-03-23T01:16:27;98598.97;;;6.60;75.51
64679;BME280;51094;53.864;27.676;2023-03-23T01:18:53;98650.13;;;6.95;75.27
64679;BME280;51094;53.864;27.676;2023-03-23T01:21:20;98739.19;;;7.68;75.16
64679;BME280;51094;53.864;27.676;2023-03-23T01:23:46;98718.38;;;7.57;74.94
64679;BME280;51094;53.864;27.676;2023-03-23T01:26:14;98742.41;;;7.72;74.97
64679;BME280;51094;53.864;27.676;2023-03-23T01:28:42;98629.22;;;6.98;74.82
64679;BME280;51094;53.864;27.676;2023-03-23T01:31:17;98537.72;;;6.50;74.62
64679;BME280;51094;53.864;27.676;2023-03-23T01:33:43;98639.31;;;7.15;74.67
64679;BME280;51094;53.864;27.676;2023-03-23T01:36:12;98737.03;;;7.75;74.93
64679;BME280;51094;53.864;27.676;2023-03-23T01:38:38;98661.34;;;7.33;74.62
64679;BME280;51094;53.864;27.676;2023-03-23T01:41:04;98703.28;;;7.64;74.58
64679;BME280;51094;53.864;27.676;2023-03-23T01:43:31;98723.25;;;7.75;74.37
64679;BME280;51094;53.864;27.676;2023-03-23T01:45:57;98703.69;;;7.58;74.19
64679;BME280;51094;53.864;27.676;2023-03-23T01:48:35;98722.63;;;7.71;74.23
64679;BME280;51094;53.864;27.676;2023-03-23T01:51:08;98726.03;;;7.72;74.36
64679;BME280;51094;53.864;27.676;2023-03-23T01:53:43;98727.28;;;7.79;74.65
64679;BME280;51094;53.864;27.676;2023-03-23T01:56:12;98723.63;;;7.81;74.65
64679;BME280;51094;53.864;27.676;2023-03-23T01:58:40;98687.44;;;7.56;74.17
64679;BME280;51094;53.864;27.676;2023-03-23T02:01:10;98636.63;;;7.29;74.11
64679;BME280;51094;53.864;27.676;2023-03-23T02:03:39;98720.84;;;7.84;74.32
64679;BME280;51094;53.864;27.676;2023-03-23T02:06:07;98620.28;;;7.16;74.41
64679;BME280;51094;53.864;27.676;2023-03-23T02:08:43;98652.16;;;7.29;74.35
64679;BME280;51094;53.864;27.676;2023-03-23T02:11:18;98713.84;;;7.74;74.51
64679;BME280;51094;53.864;27.676;2023-03-23T02:13:45;98654.41;;;7.59;74.12
64679;BME280;51094;53.864;27.676;2023-03-23T02:19:07;98700.78;;;7.75;74.52
64679;BME280;51094;53.864;27.676;2023-03-23T02:21:48;98723.63;;;8.07;73.72
64679;BME280;51094;53.864;27.676;2023-03-23T02:33:29;98727.06;;;7.94;73.86
64679;BME280;51094;53.864;27.676;2023-03-23T02:36:18;98719.28;;;7.94;73.73
64679;BME280;51094;53.864;27.676;2023-03-23T02:41:31;98625.75;;;7.24;73.63
64679;BME280;51094;53.864;27.676;2023-03-23T02:43:58;98726.22;;;7.81;73.66
64679;BME280;51094;53.864;27.676;2023-03-23T02:46:28;98585.09;;;7.01;74.20
64679;BME280;51094;53.864;27.676;2023-03-23T02:48:57;98643.56;;;7.29;74.12
64679;BME280;51094;53.864;27.676;2023-03-23T02:51:24;98664.34;;;7.40;74.13
64679;BME280;51094;53.864;27.676;2023-03-23T02:53:53;98710.50;;;7.46;75.04
64679;BME280;51094;53.864;27.676;2023-03-23T02:56:23;98713.81;;;7.61;75.40
64679;BME280;51094;53.864;27.676;2023-03-23T02:58:50;98714.44;;;7.64;75.50
64679;BME280;51094;53.864;27.676;2023-03-23T03:04:10;98707.09;;;7.58;75.42
64679;BME280;51094;53.864;27.676;2023-03-23T03:06:56;98696.22;;;7.53;76.13
64679;BME280;51094;53.864;27.676;2023-03-23T03:10:10;98701.69;;;7.49;76.06
64679;BME280;51094;53.864;27.676;2023-03-23T03:12:46;98701.50;;;7.52;76.39
64679;BME280;51094;53.864;27.676;2023-03-23T03:15:31;98699.63;;;7.54;76.26
64679;BME280;51094;53.864;27.676;2023-03-23T03:20:38;98676.06;;;7.33;76.19
64679;BME280;51094;53.864;27.676;2023-03-23T03:23:07;98651.94;;;7.20;76.67
64679;BME280;51094;53.864;27.676;2023-03-23T03:25:40;98577.34;;;6.88;76.45
64679;BME280;51094;53.864;27.676;2023-03-23T03:28:08;98663.50;;;7.40;76.59
64679;BME280;51094;53.864;27.676;2023-03-23T03:30:43;98701.09;;;7.58;76.87
64679;BME280;51094;53.864;27.676;2023-03-23T03:33:11;98686.91;;;7.51;76.45
64679;BME280;51094;53.864;27.676;2023-03-23T03:35:39;98613.53;;;7.01;76.86
64679;BME280;51094;53.864;27.676;2023-03-23T03:38:10;98633.91;;;7.06;76.92
64679;BME280;51094;53.864;27.676;2023-03-23T03:40:36;98653.38;;;7.24;77.57
64679;BME280;51094;53.864;27.676;2023-03-23T03:43:02;98614.16;;;6.92;76.99
64679;BME280;51094;53.864;27.676;2023-03-23T03:45:28;98689.16;;;7.43;77.26
64679;BME280;51094;53.864;27.676;2023-03-23T03:47:54;98658.97;;;7.30;77.70
64679;BME280;51094;53.864;27.676;2023-03-23T03:50:21;98599.66;;;7.02;77.80
64679;BME280;51094;53.864;27.676;2023-03-23T03:52:47;98672.53;;;7.59;77.34
64679;BME280;51094;53.864;27.676;2023-03-23T03:55:13;98674.50;;;7.56;77.60
64679;BME280;51094;53.864;27.676;2023-03-23T03:57:43;98619.13;;;7.20;77.68
64679;BME280;51094;53.864;27.676;2023-03-23T04:00:26;98597.19;;;7.13;78.09
64679;BME280;51094;53.864;27.676;2023-03-23T04:02:51;98654.19;;;7.50;78.20
64679;BME280;51094;53.864;27.676;2023-03-23T04:05:40;98572.28;;;6.99;78.39
64679;BME280;51094;53.864;27.676;2023-03-23T04:08:07;98659.59;;;7.59;77.99
64679;BME280;51094;53.864;27.676;2023-03-23T04:10:33;98602.69;;;7.34;78.16
64679;BME280;51094;53.864;27.676;2023-03-23T04:13:00;98646.75;;;7.58;77.62
64679;BME280;51094;53.864;27.676;2023-03-23T04:15:52;98625.84;;;7.48;78.07
64679;BME280;51094;53.864;27.676;2023-03-23T04:18:18;98640.75;;;7.57;77.88
64679;BME280;51094;53.864;27.676;2023-03-23T04:20:47;98533.41;;;6.88;78.31
64679;BME280;51094;53.864;27.676;2023-03-23T04:23:17;98540.66;;;6.83;78.06
64679;BME280;51094;53.864;27.676;2023-03-23T04:25:49;98624.22;;;7.34;78.54
64679;BME280;51094;53.864;27.676;2023-03-23T04:28:17;98634.84;;;7.43;78.69
64679;BME280;51094;53.864;27.676;2023-03-23T04:31:04;98620.38;;;7.27;78.46
64679;BME280;51094;53.864;27.676;2023-03-23T04:33:30;98632.56;;;7.51;78.96
64679;BME280;51094;53.864;27.676;2023-03-23T04:36:00;98589.44;;;7.13;78.02
64679;BME280;51094;53.864;27.676;2023-03-23T04:38:36;98634.97;;;7.54;78.63
64679;BME280;51094;53.864;27.676;2023-03-23T04:41:10;98634.22;;;7.52;78.78
64679;BME280;51094;53.864;27.676;2023-03-23T04:43:57;98522.44;;;6.85;78.54
64679;BME280;51094;53.864;27.676;2023-03-23T04:46:38;98645.00;;;7.58;78.94
64679;BME280;51094;53.864;27.676;2023-03-23T04:49:10;98643.25;;;7.59;78.78
64679;BME280;51094;53.864;27.676;2023-03-23T04:51:38;98648.41;;;7.59;78.92
64679;BME280;51094;53.864;27.676;2023-03-23T04:54:34;98581.38;;;7.18;79.49
64679;BME280;51094;53.864;27.676;2023-03-23T04:57:00;98633.31;;;7.53;79.04
64679;BME280;51094;53.864;27.676;2023-03-23T04:59:27;98640.03;;;7.55;79.35
64679;BME280;51094;53.864;27.676;2023-03-23T05:02:02;98642.31;;;7.60;78.94
64679;BME280;51094;53.864;27.676;2023-03-23T05:04:28;98631.03;;;7.48;79.10
64679;BME280;51094;53.864;27.676;2023-03-23T05:07:13;98648.00;;;7.65;79.12
64679;BME280;51094;53.864;27.676;2023-03-23T05:09:49;98676.16;;;7.70;78.94
64679;BME280;51094;53.864;27.676;2023-03-23T05:12:17;98649.25;;;7.72;79.01
64679;BME280;51094;53.864;27.676;2023-03-23T05:15:03;98555.31;;;7.08;78.74
64679;BME280;51094;53.864;27.676;2023-03-23T05:17:31;98568.03;;;7.24;79.36
64679;BME280;51094;53.864;27.676;2023-03-23T05:20:01;98592.56;;;7.31;79.16
64679;BME280;51094;53.864;27.676;2023-03-23T05:22:36;98552.00;;;7.19;78.83
64679;BME280;51094;53.864;27.676;2023-03-23T05:25:05;98655.66;;;7.79;79.20
64679;BME280;51094;53.864;27.676;2023-03-23T05:27:37;98643.66;;;7.78;79.19
64679;BME280;51094;53.864;27.676;2023-03-23T05:30:15;98646.59;;;7.85;79.11
64679;BME280;51094;53.864;27.676;2023-03-23T05:32:43;98648.16;;;8.00;79.03
64679;BME280;51094;53.864;27.676;2023-03-23T05:35:39;98641.69;;;8.18;79.16
64679;BME280;51094;53.864;27.676;2023-03-23T05:38:05;98500.75;;;7.49;78.05
64679;BME280;51094;53.864;27.676;2023-03-23T05:40:31;98547.09;;;7.89;78.22
64679;BME280;51094;53.864;27.676;2023-03-23T05:43:07;98659.00;;;8.54;77.93
64679;BME280;51094;53.864;27.676;2023-03-23T05:45:51;98569.78;;;8.22;77.72
64679;BME280;51094;53.864;27.676;2023-03-23T05:48:18;98614.72;;;8.57;76.92
64679;BME280;51094;53.864;27.676;2023-03-23T05:50:44;98608.81;;;8.55;76.90
64679;BME280;51094;53.864;27.676;2023-03-23T05:53:10;98640.91;;;8.65;76.61
64679;BME280;51094;53.864;27.676;2023-03-23T05:55:38;98610.53;;;8.31;76.62
64679;BME280;51094;53.864;27.676;2023-03-23T05:58:36;98640.34;;;8.49;76.41
64679;BME280;51094;53.864;27.676;2023-03-23T06:01:06;98652.81;;;8.44;76.78
64679;BME280;51094;53.864;27.676;2023-03-23T06:03:32;98589.16;;;8.16;77.19
64679;BME280;51094;53.864;27.676;2023-03-23T06:06:17;98640.34;;;8.49;76.97
64679;BME280;51094;53.864;27.676;2023-03-23T06:08:50;98643.00;;;8.60;77.05
64679;BME280;51094;53.864;27.676;2023-03-23T06:11:21;98529.25;;;7.97;76.67
64679;BME280;51094;53.864;27.676;2023-03-23T06:14:04;98604.72;;;8.40;77.47
64679;BME280;51094;53.864;27.676;2023-03-23T06:16:30;98643.72;;;8.62;76.43
64679;BME280;51094;53.864;27.676;2023-03-23T06:18:57;98648.13;;;8.49;76.62
64679;BME280;51094;53.864;27.676;2023-03-23T06:21:32;98626.97;;;8.19;77.00
64679;BME280;51094;53.864;27.676;2023-03-23T06:24:09;98561.31;;;7.83;77.27
64679;BME280;51094;53.864;27.676;2023-03-23T06:26:38;98641.31;;;8.36;77.29
64679;BME280;51094;53.864;27.676;2023-03-23T06:29:14;98607.41;;;8.15;77.44
64679;BME280;51094;53.864;27.676;2023-03-23T06:31:47;98635.16;;;8.49;77.54
64679;BME280;51094;53.864;27.676;2023-03-23T06:34:14;98575.00;;;8.09;76.75
64679;BME280;51094;53.864;27.676;2023-03-23T06:36:58;98638.19;;;8.43;76.81
64679;BME280;51094;53.864;27.676;2023-03-23T06:39:35;98585.97;;;8.13;77.18
64679;BME280;51094;53.864;27.676;2023-03-23T06:42:25;98624.81;;;8.49;76.86
64679;BME280;51094;53.864;27.676;2023-03-23T06:45:09;98637.72;;;8.73;77.19
64679;BME280;51094;53.864;27.676;2023-03-23T06:47:36;98642.47;;;8.79;76.66
64679;BME280;51094;53.864;27.676;2023-03-23T06:50:02;98569.91;;;8.31;75.46
64679;BME280;51094;53.864;27.676;2023-03-23T06:52:30;98637.66;;;8.86;75.82
64679;BME280;51094;53.864;27.676;2023-03-23T06:54:56;98547.28;;;8.46;75.51
64679;BME280;51094;53.864;27.676;2023-03-23T06:57:21;98571.09;;;8.86;75.88
64679;BME280;51094;53.864;27.676;2023-03-23T06:59:50;98520.28;;;8.84;75.31
64679;BME280;51094;53.864;27.676;2023-03-23T07:02:16;98635.22;;;9.64;74.02
64679;BME280;51094;53.864;27.676;2023-03-23T07:04:44;98575.97;;;9.24;72.91
64679;BME280;51094;53.864;27.676;2023-03-23T07:07:24;98632.28;;;9.46;73.01
64679;BME280;51094;53.864;27.676;2023-03-23T07:10:04;98617.00;;;9.19;72.91
64679;BME280;51094;53.864;27.676;2023-03-23T07:12:31;98627.13;;;9.11;73.63
64679;BME280;51094;53.864;27.676;2023-03-23T07:14:56;98632.41;;;8.98;74.12
64679;BME280;51094;53.864;27.676;2023-03-23T07:17:22;98608.69;;;8.92;74.56
64679;BME280;51094;53.864;27.676;2023-03-23T07:20:07;98555.94;;;8.69;74.77
64679;BME280;51094;53.864;27.676;2023-03-23T07:22:34;98489.34;;;8.23;74.57
64679;BME280;51094;53.864;27.676;2023-03-23T07:25:08;98614.44;;;8.84;74.62
64679;BME280;51094;53.864;27.676;2023-03-23T07:27:47;98618.97;;;8.70;75.89
64679;BME280;51094;53.864;27.676;2023-03-23T07:30:14;98598.66;;;8.52;76.85
64679;BME280;51094;53.864;27.676;2023-03-23T07:32:41;98588.31;;;8.52;76.31
64679;BME280;51094;53.864;27.676;2023-03-23T07:35:08;98600.53;;;8.85;76.54
64679;BME280;51094;53.864;27.676;2023-03-23T07:38:00;98490.38;;;8.33;76.12
64679;BME280;51094;53.864;27.676;2023-03-23T07:40:28;98554.72;;;8.86;76.10
64679;BME280;51094;53.864;27.676;2023-03-23T07:43:00;98441.19;;;8.10;75.77
64679;BME280;51094;53.864;27.676;2023-03-23T07:45:35;98506.13;;;8.65;75.55
64679;BME280;51094;53.864;27.676;2023-03-23T07:48:01;98583.75;;;9.24;75.69
64679;BME280;51094;53.864;27.676;2023-03-23T07:50:28;98592.50;;;9.34;75.70
64679;BME280;51094;53.864;27.676;2023-03-23T07:52:56;98556.06;;;9.36;75.64
64679;BME280;51094;53.864;27.676;2023-03-23T07:55:25;98542.84;;;9.39;74.89
64679;BME280;51094;53.864;27.676;2023-03-23T07:58:21;98546.25;;;9.73;74.54
64679;BME280;51094;53.864;27.676;2023-03-23T08:00:53;98562.78;;;10.15;73.90
64679;BME280;51094;53.864;27.676;2023-03-23T08:03:21;98562.88;;;10.36;72.97
64679;BME280;51094;53.864;27.676;2023-03-23T08:05:58;98503.41;;;10.11;72.05
64679;BME280;51094;53.864;27.676;2023-03-23T08:08:43;98554.97;;;10.58;71.57
64679;BME280;51094;53.864;27.676;2023-03-23T08:11:29;98519.66;;;10.56;71.20
64679;BME280;51094;53.864;27.676;2023-03-23T08:14:13;98540.75;;;11.04;68.73
64679;BME280;51094;53.864;27.676;2023-03-23T08:16:58;98535.13;;;11.29;68.88
64679;BME280;51094;53.864;27.676;2023-03-23T08:19:43;98544.31;;;11.64;67.70
64679;BME280;51094;53.864;27.676;2023-03-23T08:22:52;98551.09;;;11.46;65.06
64679;BME280;51094;53.864;27.676;2023-03-23T08:25:48;98552.13;;;11.33;66.54
64679;BME280;51094;53.864;27.676;2023-03-23T08:28:36;98523.69;;;11.11;65.86
64679;BME280;51094;53.864;27.676;2023-03-23T08:31:20;98406.75;;;10.49;66.69
64679;BME280;51094;53.864;27.676;2023-03-23T08:34:18;98538.47;;;11.41;65.52
64679;BME280;51094;53.864;27.676;2023-03-23T08:37:04;98545.66;;;11.18;65.52
64679;BME280;51094;53.864;27.676;2023-03-23T08:39:54;98544.56;;;11.00;66.37
64679;BME280;51094;53.864;27.676;2023-03-23T08:42:40;98468.81;;;10.42;66.43
64679;BME280;51094;53.864;27.676;2023-03-23T08:45:19;98544.28;;;10.73;67.67
64679;BME280;51094;53.864;27.676;2023-03-23T08:47:45;98544.34;;;10.61;68.53
64679;BME280;51094;53.864;27.676;2023-03-23T08:50:25;98474.38;;;10.06;68.73
64679;BME280;51094;53.864;27.676;2023-03-23T08:53:23;98439.91;;;9.72;69.62
64679;BME280;51094;53.864;27.676;2023-03-23T08:56:10;98497.75;;;10.06;69.65
64679;BME280;51094;53.864;27.676;2023-03-23T08:58:56;98457.25;;;9.82;70.45
64679;BME280;51094;53.864;27.676;2023-03-23T09:01:38;98513.06;;;10.31;70.22
64679;BME280;51094;53.864;27.676;2023-03-23T09:04:25;98524.03;;;10.55;70.46
64679;BME280;51094;53.864;27.676;2023-03-23T09:07:16;98526.59;;;10.66;69.90
64679;BME280;51094;53.864;27.676;2023-03-23T09:09:42;98500.00;;;10.42;68.99
64679;BME280;51094;53.864;27.676;2023-03-23T09:12:08;98521.22;;;10.47;68.78
64679;BME280;51094;53.864;27.676;2023-03-23T09:14:38;98515.34;;;10.66;69.63
64679;BME280;51094;53.864;27.676;2023-03-23T09:17:05;98517.66;;;10.80;68.65
64679;BME280;51094;53.864;27.676;2023-03-23T09:19:32;98479.72;;;10.57;68.17
64679;BME280;51094;53.864;27.676;2023-03-23T09:21:59;98484.78;;;10.58;67.83
64679;BME280;51094;53.864;27.676;2023-03-23T09:24:26;98417.41;;;10.25;68.62
64679;BME280;51094;53.864;27.676;2023-03-23T09:26:51;98516.16;;;11.08;68.08
64679;BME280;51094;53.864;27.676;2023-03-23T09:29:17;98411.16;;;10.88;68.37
64679;BME280;51094;53.864;27.676;2023-03-23T09:31:44;98508.44;;;11.68;66.96
64679;BME280;51094;53.864;27.676;2023-03-23T09:34:13;98514.72;;;11.65;66.55
64679;BME280;51094;53.864;27.676;2023-03-23T09:36:42;98502.91;;;11.61;66.34
64679;BME280;51094;53.864;27.676;2023-03-23T09:39:08;98496.28;;;11.47;66.41
64679;BME280;51094;53.864;27.676;2023-03-23T09:50:27;98480.56;;;11.58;65.68
64679;BME280;51094;53.864;27.676;2023-03-23T09:53:07;98496.53;;;11.84;66.14
64679;BME280;51094;53.864;27.676;2023-03-23T09:55:34;98495.72;;;11.84;65.59
64679;BME280;51094;53.864;27.676;2023-03-23T09:58:12;98492.03;;;11.86;65.80
64679;BME280;51094;53.864;27.676;2023-03-23T10:01:15;98485.03;;;11.87;65.65
64679;BME280;51094;53.864;27.676;2023-03-23T10:03:41;98402.88;;;11.54;65.07
64679;BME280;51094;53.864;27.676;2023-03-23T10:06:15;98351.31;;;11.38;64.32
64679;BME280;51094;53.864;27.676;2023-03-23T10:08:51;98473.25;;;12.31;63.79
64679;BME280;51094;53.864;27.676;2023-03-23T10:11:37;98461.38;;;12.65;63.77
64679;BME280;51094;53.864;27.676;2023-03-23T10:14:44;98467.16;;;13.06;62.69
64679;BME280;51094;53.864;27.676;2023-03-23T10:17:23;98376.56;;;12.98;61.82
64679;BME280;51094;53.864;27.676;2023-03-23T10:20:09;98462.28;;;13.58;60.45
64679;BME280;51094;53.864;27.676;2023-03-23T10:25:29;98458.88;;;13.75;58.20
64679;BME280;51094;53.864;27.676;2023-03-23T10:28:11;98453.13;;;13.89;58.89
64679;BME280;51094;53.864;27.676;2023-03-23T10:30:47;98457.19;;;14.19;59.34
64679;BME280;51094;53.864;27.676;2023-03-23T10:33:21;98419.75;;;14.19;57.11
64679;BME280;51094;53.864;27.676;2023-03-23T10:35:53;98451.00;;;14.64;57.40
64679;BME280;51094;53.864;27.676;2023-03-23T10:38:27;98402.78;;;14.67;56.52
64679;BME280;51094;53.864;27.676;2023-03-23T10:41:05;98443.03;;;15.42;55.02
64679;BME280;51094;53.864;27.676;2023-03-23T10:43:35;98435.59;;;15.63;53.98
64679;BME280;51094;53.864;27.676;2023-03-23T10:46:05;98466.81;;;15.99;53.35
64679;BME280;51094;53.864;27.676;2023-03-23T10:48:37;98432.88;;;16.21;52.50
64679;BME280;51094;53.864;27.676;2023-03-23T10:51:07;98413.34;;;15.83;51.90
64679;BME280;51094;53.864;27.676;2023-03-23T10:53:42;98425.38;;;15.52;52.80
64679;BME280;51094;53.864;27.676;2023-03-23T10:56:27;98423.00;;;15.75;53.39
64679;BME280;51094;53.864;27.676;2023-03-23T10:58:54;98326.66;;;15.52;52.59
64679;BME280;51094;53.864;27.676;2023-03-23T11:01:30;98269.75;;;15.04;52.05
64679;BME280;51094;53.864;27.676;2023-03-23T11:03:56;98248.81;;;15.04;52.25
64679;BME280;51094;53.864;27.676;2023-03-23T11:06:32;98406.81;;;15.87;51.28
64679;BME280;51094;53.864;27.676;2023-03-23T11:09:13;98401.56;;;16.28;51.53
64679;BME280;51094;53.864;27.676;2023-03-23T11:11:41;98385.00;;;16.11;51.24
64679;BME280;51094;53.864;27.676;2023-03-23T11:14:29;98397.47;;;16.25;50.76
64679;BME280;51094;53.864;27.676;2023-03-23T11:16:57;98359.28;;;15.99;51.65
64679;BME280;51094;53.864;27.676;2023-03-23T11:19:28;98328.94;;;16.04;51.41
64679;BME280;51094;53.864;27.676;2023-03-23T11:24:36;98379.88;;;16.67;50.87
64679;BME280;51094;53.864;27.676;2023-03-23T11:27:07;98357.22;;;16.66;50.52
64679;BME280;51094;53.864;27.676;2023-03-23T11:29:35;98372.47;;;16.62;50.84
64679;BME280;51094;53.864;27.676;2023-03-23T11:32:06;98301.63;;;15.74;51.02
64679;BME280;51094;53.864;27.676;2023-03-23T11:34:41;98341.25;;;15.87;51.43
64679;BME280;51094;53.864;27.676;2023-03-23T11:39:54;98360.34;;;17.70;50.76
64679;BME280;51094;53.864;27.676;2023-03-23T11:45:21;98312.44;;;18.94;45.60
64679;BME280;51094;53.864;27.676;2023-03-23T11:47:56;98333.47;;;20.09;44.14
64679;BME280;51094;53.864;27.676;2023-03-23T11:56:15;98295.72;;;20.71;40.82
64679;BME280;51094;53.864;27.676;2023-03-23T11:58:43;98319.59;;;20.56;41.42
64679;BME280;51094;53.864;27.676;2023-03-23T12:04:21;98314.53;;;19.56;43.07
64679;BME280;51094;53.864;27.676;2023-03-23T12:09:47;98306.72;;;18.90;45.22
64679;BME280;51094;53.864;27.676;2023-03-23T12:12:30;98316.16;;;18.70;45.15
64679;BME280;51094;53.864;27.676;2023-03-23T12:18:04;98229.41;;;18.18;46.23
64679;BME280;51094;53.864;27.676;2023-03-23T12:20:57;98295.66;;;18.66;46.08
64679;BME280;51094;53.864;27.676;2023-03-23T12:36:41;98291.25;;;16.77;49.64
64679;BME280;51094;53.864;27.676;2023-03-23T12:44:30;98207.97;;;16.54;50.18
64679;BME280;51094;53.864;27.676;2023-03-23T12:47:28;98198.31;;;16.16;50.87
64679;BME280;51094;53.864;27.676;2023-03-23T12:50:00;98253.97;;;16.42;51.32
64679;BME280;51094;53.864;27.676;2023-03-23T12:52:35;98247.28;;;16.23;51.15
64679;BME280;51094;53.864;27.676;2023-03-23T12:55:21;98259.94;;;16.20;51.74
64679;BME280;51094;53.864;27.676;2023-03-23T12:57:58;98287.81;;;16.13;52.04
64679;BME280;51094;53.864;27.676;2023-03-23T13:03:16;98253.75;;;15.96;52.57
64679;BME280;51094;53.864;27.676;2023-03-23T13:05:47;98255.19;;;16.07;52.40
64679;BME280;51094;53.864;27.676;2023-03-23T13:09:01;98252.09;;;16.04;52.32
64679;BME280;51094;53.864;27.676;2023-03-23T13:11:39;98221.34;;;15.89;52.22
64679;BME280;51094;53.864;27.676;2023-03-23T13:14:21;98260.59;;;16.06;52.11
64679;BME280;51094;53.864;27.676;2023-03-23T13:17:12;98226.88;;;16.03;52.30
64679;BME280;51094;53.864;27.676;2023-03-23T13:22:23;98233.78;;;15.95;52.51
64679;BME280;51094;53.864;27.676;2023-03-23T13:24:59;98229.69;;;15.93;52.54
64679;BME280;51094;53.864;27.676;2023-03-23T13:27:26;98226.91;;;15.94;52.50
64679;BME280;51094;53.864;27.676;2023-03-23T13:29:54;98164.41;;;15.59;52.39
64679;BME280;51094;53.864;27.676;2023-03-23T13:32:22;98193.50;;;15.72;52.65
64679;BME280;51094;53.864;27.676;2023-03-23T13:34:54;98219.38;;;15.91;52.74
64679;BME280;51094;53.864;27.676;2023-03-23T13:37:25;98214.28;;;15.90;52.82
64679;BME280;51094;53.864;27.676;2023-03-23T13:39:57;98154.22;;;15.56;52.76
64679;BME280;51094;53.864;27.676;2023-03-23T13:42:29;98122.47;;;15.43;52.93
64679;BME280;51094;53.864;27.676;2023-03-23T13:48:05;98215.69;;;16.17;53.01
64679;BME280;51094;53.864;27.676;2023-03-23T13:50:55;98192.53;;;16.20;52.46
64679;BME280;51094;53.864;27.676;2023-03-23T13:53:31;98188.44;;;16.26;52.61
64679;BME280;51094;53.864;27.676;2023-03-23T13:56:17;98186.44;;;16.36;52.14
64679;BME280;51094;53.864;27.676;2023-03-23T13:58:52;98232.16;;;16.42;51.64
64679;BME280;51094;53.864;27.676;2023-03-23T14:01:37;98180.25;;;16.52;51.79
64679;BME280;51094;53.864;27.676;2023-03-23T14:04:14;98189.56;;;16.71;51.03
64679;BME280;51094;53.864;27.676;2023-03-23T14:06:41;98116.19;;;16.77;50.09
64679;BME280;51094;53.864;27.676;2023-03-23T14:09:38;98147.56;;;17.83;48.32
64679;BME280;51094;53.864;27.676;2023-03-23T14:12:14;98176.78;;;18.69;46.33
64679;BME280;51094;53.864;27.676;2023-03-23T14:14:46;98153.28;;;19.10;44.74
64679;BME280;51094;53.864;27.676;2023-03-23T14:17:23;98153.50;;;19.85;43.31
64679;BME280;51094;53.864;27.676;2023-03-23T14:19:52;98140.50;;;19.56;43.72
64679;BME280;51094;53.864;27.676;2023-03-23T14:22:32;98123.91;;;20.38;42.05
64679;BME280;51094;53.864;27.676;2023-03-23T14:25:09;98019.41;;;18.92;42.10
64679;BME280;51094;53.864;27.676;2023-03-23T14:27:36;98128.16;;;18.86;43.80
64679;BME280;51094;53.864;27.676;2023-03-23T14:30:05;98125.97;;;18.53;45.27
64679;BME280;51094;53.864;27.676;2023-03-23T14:32:32;98101.69;;;18.37;45.30
64679;BME280;51094;53.864;27.676;2023-03-23T14:35:00;98147.50;;;18.57;44.83
64679;BME280;51094;53.864;27.676;2023-03-23T14:37:31;98124.31;;;18.31;45.31
64679;BME280;51094;53.864;27.676;2023-03-23T14:39:58;98145.22;;;18.18;45.74
64679;BME280;51094;53.864;27.676;2023-03-23T14:42:30;98125.91;;;18.62;44.44
64679;BME280;51094;53.864;27.676;2023-03-23T14:44:57;98052.19;;;17.89;44.87
64679;BME280;51094;53.864;27.676;2023-03-23T14:47:33;98115.09;;;17.91;46.64
64679;BME280;51094;53.864;27.676;2023-03-23T14:50:02;98119.00;;;17.80;46.58
64679;BME280;51094;53.864;27.676;2023-03-23T14:52:33;98105.66;;;17.52;46.39